createdAt,value
2023-03-12T00:00:08.651Z,2.35
2023-03-12T00:02:35.491Z,2.45
2023-03-12T00:05:02.484Z,2.40
2023-03-12T00:07:29.368Z,3.35
2023-03-12T00:09:56.304Z,2.53
2023-03-12T00:12:23.118Z,2.38
2023-03-12T00:14:49.888Z,3.05
2023-03-12T00:17:16.677Z,2.42
2023-03-12T00:19:43.461Z,2.67
2023-03-12T00:22:10.252Z,2.72
2023-03-12T00:24:36.999Z,3.08
2023-03-12T00:27:03.880Z,3.35
2023-03-12T00:29:30.657Z,2.83
2023-03-12T00:31:57.380Z,3.55
2023-03-12T00:34:24.126Z,2.42
2023-03-12T00:36:50.912Z,3.00
2023-03-12T00:39:19.005Z,2.83
2023-03-12T00:41:45.754Z,2.90
2023-03-12T00:44:12.537Z,2.80
2023-03-12T00:46:39.321Z,3.20
2023-03-12T00:49:06.098Z,3.08
2023-03-12T00:51:32.866Z,2.65
2023-03-12T00:53:59.733Z,3.78
2023-03-12T00:56:26.606Z,4.63
2023-03-12T00:58:53.352Z,5.18
2023-03-12T01:01:20.332Z,5.22
2023-03-12T01:03:47.299Z,4.68
2023-03-12T01:06:14.181Z,5.75
2023-03-12T01:08:41.024Z,5.25
2023-03-12T01:11:07.784Z,4.32
2023-03-12T01:13:34.545Z,3.63
2023-03-12T01:16:01.402Z,3.70
2023-03-12T01:18:28.174Z,3.78
2023-03-12T01:20:55.029Z,3.53
2023-03-12T01:23:21.802Z,3.95
2023-03-12T01:25:49.525Z,4.13
2023-03-12T01:28:16.316Z,2.95
2023-03-12T01:30:43.060Z,3.60
2023-03-12T01:33:09.926Z,3.47
2023-03-12T01:35:39.537Z,3.72
2023-03-12T01:38:08.176Z,3.80
2023-03-12T01:40:36.456Z,4.15
2023-03-12T01:43:29.860Z,3.78
2023-03-12T01:46:27.529Z,3.85
2023-03-12T01:49:06.439Z,4.03
2023-03-12T01:51:48.305Z,3.78
2023-03-12T01:54:22.837Z,3.67
2023-03-12T01:56:50.828Z,3.53
2023-03-12T01:59:23.884Z,3.80
2023-03-12T02:01:51.791Z,3.30
2023-03-12T02:04:21.969Z,4.20
2023-03-12T02:07:09.211Z,3.72
2023-03-12T02:09:40.870Z,3.72
2023-03-12T02:12:08.551Z,3.50
2023-03-12T02:14:35.794Z,4.20
2023-03-12T02:17:02.813Z,4.75
2023-03-12T02:19:47.723Z,5.13
2023-03-12T02:22:15.355Z,4.93
2023-03-12T02:25:04.024Z,5.32
2023-03-12T02:27:36.734Z,4.38
2023-03-12T02:30:05.326Z,4.10
2023-03-12T02:32:38.518Z,4.38
2023-03-12T02:35:06.627Z,4.70
2023-03-12T02:37:33.383Z,4.97
2023-03-12T02:40:13.519Z,5.15
2023-03-12T02:42:40.806Z,4.93
2023-03-12T02:45:08.186Z,5.28
2023-03-12T02:47:34.978Z,5.00
2023-03-12T02:50:01.738Z,5.22
2023-03-12T02:52:28.502Z,5.50
2023-03-12T02:54:55.282Z,5.45
2023-03-12T02:57:22.084Z,5.43
2023-03-12T02:59:48.847Z,6.13
2023-03-12T03:02:15.589Z,6.85
2023-03-12T03:04:42.404Z,6.05
2023-03-12T03:07:09.256Z,4.97
2023-03-12T03:09:36.061Z,5.60
2023-03-12T03:12:02.830Z,6.25
2023-03-12T03:14:29.586Z,6.78
2023-03-12T03:16:56.454Z,5.80
2023-03-12T03:19:23.636Z,5.70
2023-03-12T03:21:50.410Z,6.75
2023-03-12T03:24:17.264Z,6.85
2023-03-12T03:26:44.656Z,6.20
2023-03-12T03:29:11.471Z,5.65
2023-03-12T03:31:38.306Z,6.35
2023-03-12T03:34:05.121Z,6.18
2023-03-12T03:36:31.954Z,6.80
2023-03-12T03:38:58.851Z,7.05
2023-03-12T03:41:26.340Z,7.35
2023-03-12T03:43:57.762Z,8.30
2023-03-12T03:46:25.529Z,7.60
2023-03-12T03:48:52.384Z,7.85
2023-03-12T03:51:19.135Z,8.02
2023-03-12T03:53:45.931Z,7.47
2023-03-12T03:56:15.536Z,6.35
2023-03-12T03:58:42.661Z,6.45
2023-03-12T04:01:09.817Z,7.43
2023-03-12T04:03:36.598Z,7.70
2023-03-12T04:06:05.604Z,7.60
2023-03-12T04:08:35.631Z,8.23
2023-03-12T04:11:17.505Z,7.95
2023-03-12T04:13:45.033Z,7.15
2023-03-12T04:16:12.805Z,8.38
2023-03-12T04:18:40.411Z,8.13
2023-03-12T04:21:09.319Z,7.55
2023-03-12T04:23:36.373Z,6.68
2023-03-12T04:26:04.366Z,7.28
2023-03-12T04:28:31.175Z,7.20
2023-03-12T04:31:00.541Z,8.77
2023-03-12T04:33:35.188Z,7.68
2023-03-12T04:36:02.224Z,7.18
2023-03-12T04:38:29.164Z,9.68
2023-03-12T04:41:11.277Z,6.65
2023-03-12T04:43:38.731Z,7.10
2023-03-12T04:46:06.633Z,6.60
2023-03-12T04:48:34.689Z,6.65
2023-03-12T04:51:02.498Z,7.82
2023-03-12T04:53:29.417Z,8.82
2023-03-12T04:55:56.294Z,8.05
2023-03-12T04:58:23.470Z,8.57
2023-03-12T05:00:50.348Z,7.93
2023-03-12T05:03:18.252Z,8.20
2023-03-12T05:05:45.069Z,7.55
2023-03-12T05:08:11.919Z,7.32
2023-03-12T05:10:38.821Z,6.80
2023-03-12T05:13:12.767Z,6.95
2023-03-12T05:15:39.533Z,7.60
2023-03-12T05:18:06.300Z,7.15
2023-03-12T05:20:33.048Z,7.07
2023-03-12T05:22:59.861Z,7.18
2023-03-12T05:25:26.591Z,7.57
2023-03-12T05:27:53.378Z,7.82
2023-03-12T05:30:20.245Z,8.65
2023-03-12T05:32:47.095Z,8.10
2023-03-12T05:35:14.239Z,8.80
2023-03-12T05:37:43.003Z,8.13
2023-03-12T05:40:11.888Z,9.10
2023-03-12T05:42:38.708Z,13.02
2023-03-12T05:45:06.303Z,11.45
2023-03-12T05:47:33.073Z,12.02
2023-03-12T05:49:59.853Z,14.95
2023-03-12T05:52:26.675Z,14.57
2023-03-12T05:54:53.696Z,13.35
2023-03-12T05:57:20.476Z,12.77
2023-03-12T05:59:47.281Z,12.82
2023-03-12T06:02:14.115Z,13.38
2023-03-12T06:04:40.891Z,13.93
2023-03-12T06:07:07.753Z,15.15
2023-03-12T06:09:35.519Z,13.07
2023-03-12T06:12:02.263Z,32.70
2023-03-12T06:14:29.099Z,30.17
2023-03-12T06:16:56.052Z,18.73
2023-03-12T06:19:22.963Z,46.63
2023-03-12T06:21:49.836Z,38.95
2023-03-12T06:24:16.586Z,32.95
2023-03-12T06:26:43.546Z,39.55
2023-03-12T06:29:10.507Z,24.73
2023-03-12T06:31:38.874Z,20.63
2023-03-12T06:34:06.353Z,21.05
2023-03-12T06:36:33.160Z,17.40
2023-03-12T06:39:00.021Z,12.05
2023-03-12T06:41:26.819Z,12.23
2023-03-12T06:43:53.607Z,10.73
2023-03-12T06:46:25.823Z,9.90
2023-03-12T06:48:52.645Z,8.43
2023-03-12T06:51:19.601Z,9.57
2023-03-12T06:53:46.773Z,9.73
2023-03-12T06:56:13.967Z,12.98
2023-03-12T06:58:41.770Z,13.18
2023-03-12T07:01:09.228Z,11.95
2023-03-12T07:03:36.220Z,11.38
2023-03-12T07:06:03.531Z,10.02
2023-03-12T07:08:31.261Z,9.85
2023-03-12T07:11:01.626Z,8.52
2023-03-12T07:13:29.513Z,8.33
2023-03-12T07:15:56.412Z,8.95
2023-03-12T07:18:23.258Z,7.68
2023-03-12T07:20:50.275Z,7.35
2023-03-12T07:23:17.034Z,8.10
2023-03-12T07:25:44.909Z,7.85
2023-03-12T07:28:13.002Z,7.00
2023-03-12T07:30:40.272Z,6.68
2023-03-12T07:33:10.516Z,7.30
2023-03-12T07:35:41.256Z,8.32
2023-03-12T07:38:08.573Z,7.53
2023-03-12T07:40:36.585Z,7.53
2023-03-12T07:43:06.028Z,8.35
2023-03-12T07:45:32.821Z,10.35
2023-03-12T07:47:59.603Z,7.25
2023-03-12T07:50:27.005Z,11.13
2023-03-12T07:52:53.813Z,21.27
2023-03-12T07:55:20.761Z,7.13
2023-03-12T07:57:47.843Z,9.50
2023-03-12T08:00:15.540Z,6.78
2023-03-12T08:02:42.802Z,7.55
2023-03-12T08:05:10.332Z,8.75
2023-03-12T08:07:37.901Z,6.75
2023-03-12T08:10:08.664Z,7.32
2023-03-12T08:12:37.651Z,7.00
2023-03-12T08:15:06.273Z,5.28
2023-03-12T08:17:33.052Z,5.55
2023-03-12T08:19:59.833Z,5.30
2023-03-12T08:22:26.901Z,5.60
2023-03-12T08:24:53.685Z,5.35
2023-03-12T08:27:20.551Z,4.63
2023-03-12T08:29:47.337Z,4.82
2023-03-12T08:32:14.301Z,5.07
2023-03-12T08:34:41.386Z,4.35
2023-03-12T08:37:08.915Z,4.53
2023-03-12T08:39:35.952Z,5.15
2023-03-12T08:42:02.947Z,5.50
2023-03-12T08:44:30.008Z,4.93
2023-03-12T08:46:56.837Z,6.13
2023-03-12T08:49:24.051Z,4.97
2023-03-12T08:51:54.073Z,7.10
2023-03-12T08:54:21.636Z,5.20
2023-03-12T08:56:52.791Z,10.68
2023-03-12T08:59:20.935Z,9.90
2023-03-12T09:01:48.057Z,8.32
2023-03-12T09:04:15.166Z,4.90
2023-03-12T09:06:42.153Z,4.85
2023-03-12T09:09:09.231Z,5.30
2023-03-12T09:11:39.897Z,4.07
2023-03-12T09:15:01.012Z,5.50
2023-03-12T09:16:54.326Z,7.15
2023-03-12T09:19:21.319Z,4.10
2023-03-12T09:21:48.121Z,7.43
2023-03-12T09:24:15.291Z,5.40
2023-03-12T09:26:42.460Z,4.68
2023-03-12T09:29:09.426Z,5.53
2023-03-12T09:31:36.689Z,4.80
2023-03-12T09:34:04.860Z,3.65
2023-03-12T09:36:32.171Z,3.53
2023-03-12T09:38:59.199Z,3.70
2023-03-12T09:41:29.391Z,3.92
2023-03-12T09:44:02.708Z,4.72
2023-03-12T09:47:02.178Z,4.13
2023-03-12T09:49:41.122Z,3.85
2023-03-12T09:52:33.923Z,3.72
2023-03-12T09:55:07.950Z,4.85
2023-03-12T09:57:35.057Z,5.45
2023-03-12T10:00:02.120Z,4.88
2023-03-12T10:03:01.147Z,5.40
2023-03-12T10:05:45.387Z,4.78
2023-03-12T10:08:45.951Z,3.97
2023-03-12T10:11:18.943Z,3.83
2023-03-12T10:14:00.725Z,3.78
2023-03-12T10:19:27.511Z,3.42
2023-03-12T10:22:12.388Z,4.05
2023-03-12T10:24:52.609Z,4.57
2023-03-12T10:27:22.753Z,7.38
2023-03-12T10:29:52.566Z,5.40
2023-03-12T10:32:27.728Z,4.03
2023-03-12T10:35:05.080Z,4.53
2023-03-12T10:37:37.484Z,3.90
2023-03-12T10:40:06.163Z,7.20
2023-03-12T10:42:33.039Z,4.20
2023-03-12T10:45:14.459Z,4.15
2023-03-12T10:47:44.639Z,4.35
2023-03-12T10:50:15.334Z,4.68
2023-03-12T10:52:43.068Z,3.80
2023-03-12T10:55:23.986Z,5.30
2023-03-12T10:57:50.964Z,4.33
2023-03-12T11:00:27.393Z,4.32
2023-03-12T11:03:03.605Z,4.07
2023-03-12T11:05:48.737Z,4.55
2023-03-12T11:08:21.629Z,3.95
2023-03-12T11:10:48.389Z,4.30
2023-03-12T11:13:28.189Z,5.85
2023-03-12T11:16:00.334Z,6.45
2023-03-12T11:18:37.948Z,3.92
2023-03-12T11:21:17.308Z,5.55
2023-03-12T11:23:48.622Z,3.85
2023-03-12T11:26:19.996Z,5.88
2023-03-12T11:28:52.909Z,4.40
2023-03-12T11:31:25.347Z,3.65
2023-03-12T11:33:54.740Z,6.82
2023-03-12T11:36:34.185Z,4.70
2023-03-12T11:39:22.674Z,3.70
2023-03-12T11:41:58.152Z,3.80
2023-03-12T11:44:34.258Z,3.83
2023-03-12T11:47:14.807Z,3.72
2023-03-12T11:50:00.516Z,3.80
2023-03-12T11:52:48.351Z,4.07
2023-03-12T11:55:41.389Z,3.90
2023-03-12T11:58:49.258Z,7.80
2023-03-12T12:01:31.351Z,4.57
2023-03-12T12:04:25.099Z,3.90
2023-03-12T12:07:17.547Z,3.83
2023-03-12T12:09:53.467Z,3.38
2023-03-12T12:12:41.670Z,3.50
2023-03-12T12:15:26.544Z,3.20
2023-03-12T12:18:16.095Z,3.88
2023-03-12T12:20:52.103Z,5.65
2023-03-12T12:24:01.526Z,3.80
2023-03-12T12:26:31.414Z,4.20
2023-03-12T12:29:35.614Z,3.83
2023-03-12T15:46:28.264Z,5.15
2023-03-12T15:49:01.639Z,4.70
2023-03-12T15:51:35.175Z,3.35
2023-03-12T15:54:06.156Z,3.40
2023-03-12T15:56:35.169Z,6.70
2023-03-12T15:59:23.703Z,5.65
2023-03-12T16:01:56.028Z,4.38
2023-03-12T16:04:24.875Z,4.10
2023-03-12T16:06:53.601Z,3.40
2023-03-12T16:09:26.319Z,4.25
2023-03-12T16:11:56.200Z,3.92
2023-03-12T16:14:28.703Z,3.90
2023-03-12T16:16:56.191Z,3.78
2023-03-12T16:19:24.169Z,4.38
2023-03-12T16:21:51.727Z,4.82
2023-03-12T16:24:24.522Z,6.00
2023-03-12T16:26:57.139Z,8.32
2023-03-12T16:29:32.456Z,7.80
2023-03-12T16:32:00.269Z,6.28
2023-03-12T16:34:28.710Z,7.25
2023-03-12T16:36:56.713Z,8.55
2023-03-12T16:39:24.344Z,7.90
2023-03-12T16:41:51.957Z,9.35
2023-03-12T16:44:21.816Z,13.50
2023-03-12T16:46:50.099Z,11.35
2023-03-12T16:49:20.291Z,13.82
2023-03-12T16:51:48.264Z,13.85
2023-03-12T16:54:15.501Z,11.50
2023-03-12T16:56:47.052Z,14.93
2023-03-12T17:01:52.967Z,15.00
2023-03-12T17:04:20.364Z,14.63
2023-03-12T17:06:47.619Z,15.77
